Mile Point, Vermont
Current Conditions -  °F | °C
As of 10:55 AM on Sunday 25 Jan 2015 (Local Time) from K6B0 Reporting Station
Clear Clear  
Wind Chill:   Ceiling: Unl
Heat Index: 18°   Visibility: 7mi
Dew Point:   Wind: 13mph
Humidity: 51%   Direction: 350°N
Pressure: 29.73"   Gusts: NA
Location:  44.0804°N, 73.3324°W
Report Text: K6B0 251555Z AUTO 35011KT 7SM CLR M08/M16 A2973 RMK AO2 T10771164
Loading
Personal Weather Stations






























Interactive Weather Map New forecast layout! Learn more

10-Day Weather Forecast

Advertisements
Track Severe Weather on mobile